sensor_id;sensor_type;location;lat;lon;timestamp;P1;durP1;ratioP1;P2;durP2;ratioP2
5026;SDS011;2532;52.480;13.354;2022-11-20T00:01:24;16.53;;;10.07;;
5026;SDS011;2532;52.480;13.354;2022-11-20T00:03:54;15.77;;;9.53;;
5026;SDS011;2532;52.480;13.354;2022-11-20T00:06:24;17.03;;;9.53;;
5026;SDS011;2532;52.480;13.354;2022-11-20T00:08:56;16.13;;;9.73;;
5026;SDS011;2532;52.480;13.354;2022-11-20T00:11:25;18.13;;;10.70;;
5026;SDS011;2532;52.480;13.354;2022-11-20T00:13:58;17.60;;;10.43;;
5026;SDS011;2532;52.480;13.354;2022-11-20T00:16:33;21.77;;;12.60;;
5026;SDS011;2532;52.480;13.354;2022-11-20T00:19:02;18.97;;;10.83;;
5026;SDS011;2532;52.480;13.354;2022-11-20T00:21:31;17.30;;;10.80;;
5026;SDS011;2532;52.480;13.354;2022-11-20T00:23:59;19.77;;;9.53;;
5026;SDS011;2532;52.480;13.354;2022-11-20T00:26:27;17.13;;;10.70;;
5026;SDS011;2532;52.480;13.354;2022-11-20T00:28:56;15.60;;;10.10;;
5026;SDS011;2532;52.480;13.354;2022-11-20T00:31:27;17.10;;;10.00;;
5026;SDS011;2532;52.480;13.354;2022-11-20T00:33:55;17.23;;;9.93;;
5026;SDS011;2532;52.480;13.354;2022-11-20T00:36:23;17.83;;;10.30;;
5026;SDS011;2532;52.480;13.354;2022-11-20T00:38:53;17.80;;;10.77;;
5026;SDS011;2532;52.480;13.354;2022-11-20T00:41:21;17.53;;;10.43;;
5026;SDS011;2532;52.480;13.354;2022-11-20T00:43:50;18.03;;;11.33;;
5026;SDS011;2532;52.480;13.354;2022-11-20T00:46:19;18.90;;;12.33;;
5026;SDS011;2532;52.480;13.354;2022-11-20T00:48:47;20.80;;;10.60;;
5026;SDS011;2532;52.480;13.354;2022-11-20T00:51:15;14.77;;;10.17;;
5026;SDS011;2532;52.480;13.354;2022-11-20T00:53:45;16.73;;;9.77;;
5026;SDS011;2532;52.480;13.354;2022-11-20T00:56:15;18.30;;;10.70;;
5026;SDS011;2532;52.480;13.354;2022-11-20T00:58:43;16.37;;;10.10;;
5026;SDS011;2532;52.480;13.354;2022-11-20T01:01:12;18.23;;;9.83;;
5026;SDS011;2532;52.480;13.354;2022-11-20T01:03:43;15.07;;;9.07;;
5026;SDS011;2532;52.480;13.354;2022-11-20T01:06:14;16.00;;;9.70;;
5026;SDS011;2532;52.480;13.354;2022-11-20T01:08:42;18.10;;;10.03;;
5026;SDS011;2532;52.480;13.354;2022-11-20T01:11:11;16.47;;;9.53;;
5026;SDS011;2532;52.480;13.354;2022-11-20T01:13:41;15.00;;;10.03;;
5026;SDS011;2532;52.480;13.354;2022-11-20T01:16:10;17.10;;;9.63;;
5026;SDS011;2532;52.480;13.354;2022-11-20T01:18:40;18.07;;;10.57;;
5026;SDS011;2532;52.480;13.354;2022-11-20T01:21:09;22.93;;;9.70;;
5026;SDS011;2532;52.480;13.354;2022-11-20T01:23:38;17.17;;;9.67;;
5026;SDS011;2532;52.480;13.354;2022-11-20T01:26:07;16.57;;;9.43;;
5026;SDS011;2532;52.480;13.354;2022-11-20T01:28:35;17.40;;;10.30;;
5026;SDS011;2532;52.480;13.354;2022-11-20T01:31:11;18.93;;;10.10;;
5026;SDS011;2532;52.480;13.354;2022-11-20T01:33:39;15.70;;;9.13;;
5026;SDS011;2532;52.480;13.354;2022-11-20T01:36:08;16.10;;;10.13;;
5026;SDS011;2532;52.480;13.354;2022-11-20T01:38:37;18.83;;;9.80;;
5026;SDS011;2532;52.480;13.354;2022-11-20T01:41:05;17.60;;;10.10;;
5026;SDS011;2532;52.480;13.354;2022-11-20T01:43:33;15.03;;;9.70;;
5026;SDS011;2532;52.480;13.354;2022-11-20T01:46:04;15.27;;;9.23;;
5026;SDS011;2532;52.480;13.354;2022-11-20T01:48:42;14.90;;;9.57;;
5026;SDS011;2532;52.480;13.354;2022-11-20T01:51:17;14.60;;;9.07;;
5026;SDS011;2532;52.480;13.354;2022-11-20T01:53:49;18.93;;;10.40;;
5026;SDS011;2532;52.480;13.354;2022-11-20T01:56:17;16.33;;;10.07;;
5026;SDS011;2532;52.480;13.354;2022-11-20T01:58:45;16.13;;;10.00;;
5026;SDS011;2532;52.480;13.354;2022-11-20T02:01:19;18.10;;;9.97;;
5026;SDS011;2532;52.480;13.354;2022-11-20T02:03:48;13.13;;;9.27;;
5026;SDS011;2532;52.480;13.354;2022-11-20T02:06:17;18.30;;;10.90;;
5026;SDS011;2532;52.480;13.354;2022-11-20T02:08:49;15.97;;;9.63;;
5026;SDS011;2532;52.480;13.354;2022-11-20T02:11:16;16.37;;;9.60;;
5026;SDS011;2532;52.480;13.354;2022-11-20T02:13:43;14.47;;;9.87;;
5026;SDS011;2532;52.480;13.354;2022-11-20T02:16:20;16.80;;;10.10;;
5026;SDS011;2532;52.480;13.354;2022-11-20T02:18:49;17.40;;;9.67;;
5026;SDS011;2532;52.480;13.354;2022-11-20T02:21:25;17.33;;;10.20;;
5026;SDS011;2532;52.480;13.354;2022-11-20T02:24:01;17.80;;;10.20;;
5026;SDS011;2532;52.480;13.354;2022-11-20T02:26:31;21.20;;;11.23;;
5026;SDS011;2532;52.480;13.354;2022-11-20T02:29:02;20.37;;;11.03;;
5026;SDS011;2532;52.480;13.354;2022-11-20T02:31:34;17.70;;;10.77;;
5026;SDS011;2532;52.480;13.354;2022-11-20T02:34:03;19.80;;;11.30;;
5026;SDS011;2532;52.480;13.354;2022-11-20T02:36:30;20.10;;;11.20;;
5026;SDS011;2532;52.480;13.354;2022-11-20T02:39:03;17.87;;;10.10;;
5026;SDS011;2532;52.480;13.354;2022-11-20T02:41:32;15.50;;;10.37;;
5026;SDS011;2532;52.480;13.354;2022-11-20T02:44:00;16.50;;;10.07;;
5026;SDS011;2532;52.480;13.354;2022-11-20T02:46:27;14.97;;;10.00;;
5026;SDS011;2532;52.480;13.354;2022-11-20T02:48:54;18.93;;;10.83;;
5026;SDS011;2532;52.480;13.354;2022-11-20T02:51:21;16.50;;;10.33;;
5026;SDS011;2532;52.480;13.354;2022-11-20T02:53:48;18.67;;;11.13;;
5026;SDS011;2532;52.480;13.354;2022-11-20T02:56:17;23.37;;;11.23;;
5026;SDS011;2532;52.480;13.354;2022-11-20T02:58:44;19.03;;;10.87;;
5026;SDS011;2532;52.480;13.354;2022-11-20T03:01:15;19.10;;;10.50;;
5026;SDS011;2532;52.480;13.354;2022-11-20T03:03:42;18.77;;;11.10;;
5026;SDS011;2532;52.480;13.354;2022-11-20T03:06:09;17.10;;;10.83;;
5026;SDS011;2532;52.480;13.354;2022-11-20T03:08:36;18.37;;;10.83;;
5026;SDS011;2532;52.480;13.354;2022-11-20T03:11:05;27.70;;;11.20;;
5026;SDS011;2532;52.480;13.354;2022-11-20T03:13:35;14.57;;;9.10;;
5026;SDS011;2532;52.480;13.354;2022-11-20T03:16:06;16.73;;;9.90;;
5026;SDS011;2532;52.480;13.354;2022-11-20T03:18:35;16.03;;;10.23;;
5026;SDS011;2532;52.480;13.354;2022-11-20T03:21:02;18.93;;;10.40;;
5026;SDS011;2532;52.480;13.354;2022-11-20T03:23:30;21.00;;;10.53;;
5026;SDS011;2532;52.480;13.354;2022-11-20T03:26:09;20.97;;;11.43;;
5026;SDS011;2532;52.480;13.354;2022-11-20T03:28:40;17.83;;;10.70;;
5026;SDS011;2532;52.480;13.354;2022-11-20T03:31:10;19.40;;;10.33;;
5026;SDS011;2532;52.480;13.354;2022-11-20T03:33:39;16.63;;;10.07;;
5026;SDS011;2532;52.480;13.354;2022-11-20T03:36:08;19.10;;;11.93;;
5026;SDS011;2532;52.480;13.354;2022-11-20T03:38:39;19.50;;;10.77;;
5026;SDS011;2532;52.480;13.354;2022-11-20T03:41:08;18.50;;;11.90;;
5026;SDS011;2532;52.480;13.354;2022-11-20T03:43:38;21.83;;;11.70;;
5026;SDS011;2532;52.480;13.354;2022-11-20T03:46:06;21.63;;;11.30;;
5026;SDS011;2532;52.480;13.354;2022-11-20T03:48:34;21.07;;;11.50;;
5026;SDS011;2532;52.480;13.354;2022-11-20T03:51:07;22.90;;;11.63;;
5026;SDS011;2532;52.480;13.354;2022-11-20T03:53:38;22.90;;;11.50;;
5026;SDS011;2532;52.480;13.354;2022-11-20T03:56:06;19.97;;;11.07;;
5026;SDS011;2532;52.480;13.354;2022-11-20T03:58:35;20.30;;;13.23;;
5026;SDS011;2532;52.480;13.354;2022-11-20T04:01:11;20.77;;;11.50;;
5026;SDS011;2532;52.480;13.354;2022-11-20T04:03:40;20.63;;;11.30;;
5026;SDS011;2532;52.480;13.354;2022-11-20T04:06:09;18.27;;;10.40;;
5026;SDS011;2532;52.480;13.354;2022-11-20T04:08:38;20.53;;;10.90;;
5026;SDS011;2532;52.480;13.354;2022-11-20T04:11:09;18.23;;;10.37;;
5026;SDS011;2532;52.480;13.354;2022-11-20T04:13:37;19.43;;;11.90;;
5026;SDS011;2532;52.480;13.354;2022-11-20T04:16:05;18.93;;;11.10;;
5026;SDS011;2532;52.480;13.354;2022-11-20T04:18:35;18.80;;;10.60;;
5026;SDS011;2532;52.480;13.354;2022-11-20T04:21:03;24.07;;;11.50;;
5026;SDS011;2532;52.480;13.354;2022-11-20T04:23:32;22.17;;;11.80;;
5026;SDS011;2532;52.480;13.354;2022-11-20T04:26:02;19.77;;;10.73;;
5026;SDS011;2532;52.480;13.354;2022-11-20T04:28:30;17.27;;;10.90;;
5026;SDS011;2532;52.480;13.354;2022-11-20T04:31:01;22.70;;;12.60;;
5026;SDS011;2532;52.480;13.354;2022-11-20T04:33:32;19.37;;;10.67;;
5026;SDS011;2532;52.480;13.354;2022-11-20T04:36:01;19.50;;;11.23;;
5026;SDS011;2532;52.480;13.354;2022-11-20T04:38:29;21.30;;;13.10;;
5026;SDS011;2532;52.480;13.354;2022-11-20T04:40:57;19.80;;;11.13;;
5026;SDS011;2532;52.480;13.354;2022-11-20T04:43:26;20.73;;;10.90;;
5026;SDS011;2532;52.480;13.354;2022-11-20T04:45:55;20.40;;;11.27;;
5026;SDS011;2532;52.480;13.354;2022-11-20T04:48:24;22.43;;;12.73;;
5026;SDS011;2532;52.480;13.354;2022-11-20T04:51:02;18.70;;;12.17;;
5026;SDS011;2532;52.480;13.354;2022-11-20T04:53:33;22.37;;;11.60;;
5026;SDS011;2532;52.480;13.354;2022-11-20T04:56:00;21.70;;;11.70;;
5026;SDS011;2532;52.480;13.354;2022-11-20T04:58:28;23.60;;;12.00;;
5026;SDS011;2532;52.480;13.354;2022-11-20T05:01:00;20.20;;;11.40;;
5026;SDS011;2532;52.480;13.354;2022-11-20T05:03:29;19.57;;;11.23;;
5026;SDS011;2532;52.480;13.354;2022-11-20T05:06:04;20.73;;;10.97;;
5026;SDS011;2532;52.480;13.354;2022-11-20T05:08:33;21.60;;;12.73;;
5026;SDS011;2532;52.480;13.354;2022-11-20T05:11:01;19.53;;;12.73;;
5026;SDS011;2532;52.480;13.354;2022-11-20T05:13:29;21.87;;;13.03;;
5026;SDS011;2532;52.480;13.354;2022-11-20T05:16:00;17.30;;;11.10;;
5026;SDS011;2532;52.480;13.354;2022-11-20T05:18:28;18.53;;;11.30;;
5026;SDS011;2532;52.480;13.354;2022-11-20T05:20:55;18.57;;;11.87;;
5026;SDS011;2532;52.480;13.354;2022-11-20T05:23:25;21.07;;;13.53;;
5026;SDS011;2532;52.480;13.354;2022-11-20T05:25:54;19.23;;;11.13;;
5026;SDS011;2532;52.480;13.354;2022-11-20T05:28:23;22.27;;;12.20;;
5026;SDS011;2532;52.480;13.354;2022-11-20T05:30:52;21.57;;;13.67;;
5026;SDS011;2532;52.480;13.354;2022-11-20T05:33:21;19.90;;;11.93;;
5026;SDS011;2532;52.480;13.354;2022-11-20T05:35:48;23.50;;;12.40;;
5026;SDS011;2532;52.480;13.354;2022-11-20T05:38:18;22.13;;;11.90;;
5026;SDS011;2532;52.480;13.354;2022-11-20T05:40:49;20.63;;;13.43;;
5026;SDS011;2532;52.480;13.354;2022-11-20T05:43:16;18.87;;;12.10;;
5026;SDS011;2532;52.480;13.354;2022-11-20T05:45:51;20.47;;;11.70;;
5026;SDS011;2532;52.480;13.354;2022-11-20T05:48:21;20.80;;;11.93;;
5026;SDS011;2532;52.480;13.354;2022-11-20T05:50:51;17.90;;;11.30;;
5026;SDS011;2532;52.480;13.354;2022-11-20T05:53:19;22.43;;;11.07;;
5026;SDS011;2532;52.480;13.354;2022-11-20T05:55:46;22.30;;;11.73;;
5026;SDS011;2532;52.480;13.354;2022-11-20T05:58:24;21.10;;;11.27;;
5026;SDS011;2532;52.480;13.354;2022-11-20T06:00:53;20.80;;;11.87;;
5026;SDS011;2532;52.480;13.354;2022-11-20T06:03:21;20.07;;;11.73;;
5026;SDS011;2532;52.480;13.354;2022-11-20T06:05:48;17.67;;;11.63;;
5026;SDS011;2532;52.480;13.354;2022-11-20T06:08:16;20.13;;;10.40;;
5026;SDS011;2532;52.480;13.354;2022-11-20T06:10:43;19.63;;;11.77;;
5026;SDS011;2532;52.480;13.354;2022-11-20T06:13:10;23.50;;;14.50;;
5026;SDS011;2532;52.480;13.354;2022-11-20T06:15:38;22.43;;;12.60;;
5026;SDS011;2532;52.480;13.354;2022-11-20T06:18:05;21.30;;;13.40;;
5026;SDS011;2532;52.480;13.354;2022-11-20T06:20:32;24.83;;;13.80;;
5026;SDS011;2532;52.480;13.354;2022-11-20T06:22:59;22.73;;;13.00;;
5026;SDS011;2532;52.480;13.354;2022-11-20T06:25:26;23.70;;;13.10;;
5026;SDS011;2532;52.480;13.354;2022-11-20T06:27:53;25.07;;;13.60;;
5026;SDS011;2532;52.480;13.354;2022-11-20T06:30:20;24.17;;;13.33;;
5026;SDS011;2532;52.480;13.354;2022-11-20T06:32:48;20.10;;;12.57;;
5026;SDS011;2532;52.480;13.354;2022-11-20T06:35:15;21.17;;;13.17;;
5026;SDS011;2532;52.480;13.354;2022-11-20T06:37:42;18.70;;;11.70;;
5026;SDS011;2532;52.480;13.354;2022-11-20T06:40:10;24.23;;;13.10;;
5026;SDS011;2532;52.480;13.354;2022-11-20T06:42:37;21.30;;;12.90;;
5026;SDS011;2532;52.480;13.354;2022-11-20T06:45:05;21.33;;;13.67;;
5026;SDS011;2532;52.480;13.354;2022-11-20T06:47:32;24.43;;;13.40;;
5026;SDS011;2532;52.480;13.354;2022-11-20T06:50:01;22.60;;;13.23;;
5026;SDS011;2532;52.480;13.354;2022-11-20T06:52:27;20.80;;;12.20;;
5026;SDS011;2532;52.480;13.354;2022-11-20T06:54:55;22.93;;;15.47;;
5026;SDS011;2532;52.480;13.354;2022-11-20T06:57:21;20.30;;;12.80;;
5026;SDS011;2532;52.480;13.354;2022-11-20T06:59:48;23.03;;;13.37;;
5026;SDS011;2532;52.480;13.354;2022-11-20T07:02:15;21.67;;;13.30;;
5026;SDS011;2532;52.480;13.354;2022-11-20T07:04:42;20.90;;;12.80;;
5026;SDS011;2532;52.480;13.354;2022-11-20T07:07:10;25.23;;;16.23;;
5026;SDS011;2532;52.480;13.354;2022-11-20T07:09:37;24.80;;;13.03;;
5026;SDS011;2532;52.480;13.354;2022-11-20T07:12:04;23.03;;;13.10;;
5026;SDS011;2532;52.480;13.354;2022-11-20T07:14:32;21.40;;;12.57;;
5026;SDS011;2532;52.480;13.354;2022-11-20T07:16:59;22.70;;;12.87;;
5026;SDS011;2532;52.480;13.354;2022-11-20T07:19:26;22.40;;;13.40;;
5026;SDS011;2532;52.480;13.354;2022-11-20T07:21:52;22.07;;;14.20;;
5026;SDS011;2532;52.480;13.354;2022-11-20T07:24:21;24.03;;;13.30;;
5026;SDS011;2532;52.480;13.354;2022-11-20T07:26:48;21.87;;;13.10;;
5026;SDS011;2532;52.480;13.354;2022-11-20T07:29:15;25.10;;;14.97;;
5026;SDS011;2532;52.480;13.354;2022-11-20T07:31:42;26.43;;;16.30;;
5026;SDS011;2532;52.480;13.354;2022-11-20T07:34:09;27.30;;;13.57;;
5026;SDS011;2532;52.480;13.354;2022-11-20T07:36:36;25.93;;;14.20;;
5026;SDS011;2532;52.480;13.354;2022-11-20T07:39:03;23.90;;;13.13;;
5026;SDS011;2532;52.480;13.354;2022-11-20T07:41:32;25.07;;;15.77;;
5026;SDS011;2532;52.480;13.354;2022-11-20T07:43:59;25.47;;;14.93;;
5026;SDS011;2532;52.480;13.354;2022-11-20T07:46:26;23.50;;;14.10;;
5026;SDS011;2532;52.480;13.354;2022-11-20T07:48:53;25.73;;;13.87;;
5026;SDS011;2532;52.480;13.354;2022-11-20T07:51:20;24.47;;;14.37;;
5026;SDS011;2532;52.480;13.354;2022-11-20T07:53:47;21.23;;;12.40;;
5026;SDS011;2532;52.480;13.354;2022-11-20T07:56:16;27.83;;;13.80;;
5026;SDS011;2532;52.480;13.354;2022-11-20T07:58:44;25.77;;;14.10;;
5026;SDS011;2532;52.480;13.354;2022-11-20T08:01:11;26.93;;;15.00;;
5026;SDS011;2532;52.480;13.354;2022-11-20T08:03:38;27.00;;;14.30;;
5026;SDS011;2532;52.480;13.354;2022-11-20T08:06:05;22.97;;;12.90;;
5026;SDS011;2532;52.480;13.354;2022-11-20T08:08:33;25.33;;;14.57;;
5026;SDS011;2532;52.480;13.354;2022-11-20T08:11:00;27.27;;;16.90;;
5026;SDS011;2532;52.480;13.354;2022-11-20T08:13:41;25.77;;;16.40;;
5026;SDS011;2532;52.480;13.354;2022-11-20T08:16:27;24.70;;;14.50;;
5026;SDS011;2532;52.480;13.354;2022-11-20T08:18:54;24.67;;;14.13;;
5026;SDS011;2532;52.480;13.354;2022-11-20T08:21:21;24.70;;;14.50;;
5026;SDS011;2532;52.480;13.354;2022-11-20T08:23:48;21.23;;;13.13;;
5026;SDS011;2532;52.480;13.354;2022-11-20T08:26:15;25.63;;;14.47;;
5026;SDS011;2532;52.480;13.354;2022-11-20T08:28:42;27.73;;;15.30;;
5026;SDS011;2532;52.480;13.354;2022-11-20T08:31:10;24.00;;;13.23;;
5026;SDS011;2532;52.480;13.354;2022-11-20T08:33:38;27.73;;;15.17;;
5026;SDS011;2532;52.480;13.354;2022-11-20T08:36:05;23.10;;;13.53;;
5026;SDS011;2532;52.480;13.354;2022-11-20T08:38:32;23.70;;;13.30;;
5026;SDS011;2532;52.480;13.354;2022-11-20T08:40:59;24.07;;;14.20;;
5026;SDS011;2532;52.480;13.354;2022-11-20T08:43:45;29.70;;;18.13;;
5026;SDS011;2532;52.480;13.354;2022-11-20T08:46:12;23.57;;;13.73;;
5026;SDS011;2532;52.480;13.354;2022-11-20T08:48:41;23.37;;;15.07;;
5026;SDS011;2532;52.480;13.354;2022-11-20T08:51:09;24.43;;;13.33;;
5026;SDS011;2532;52.480;13.354;2022-11-20T08:53:36;26.70;;;15.40;;
5026;SDS011;2532;52.480;13.354;2022-11-20T08:56:04;22.23;;;13.37;;
5026;SDS011;2532;52.480;13.354;2022-11-20T08:58:31;20.60;;;12.50;;
5026;SDS011;2532;52.480;13.354;2022-11-20T09:00:58;25.50;;;15.70;;
5026;SDS011;2532;52.480;13.354;2022-11-20T09:03:25;21.50;;;12.93;;
5026;SDS011;2532;52.480;13.354;2022-11-20T09:05:57;26.73;;;16.03;;
5026;SDS011;2532;52.480;13.354;2022-11-20T09:08:26;28.80;;;13.23;;
5026;SDS011;2532;52.480;13.354;2022-11-20T09:10:54;28.47;;;15.53;;
5026;SDS011;2532;52.480;13.354;2022-11-20T09:13:22;23.53;;;13.13;;
5026;SDS011;2532;52.480;13.354;2022-11-20T09:15:52;23.03;;;13.93;;
5026;SDS011;2532;52.480;13.354;2022-11-20T09:18:20;21.20;;;13.83;;
5026;SDS011;2532;52.480;13.354;2022-11-20T09:20:47;22.87;;;14.10;;
5026;SDS011;2532;52.480;13.354;2022-11-20T09:23:15;21.07;;;12.37;;
5026;SDS011;2532;52.480;13.354;2022-11-20T09:25:43;23.00;;;12.63;;
5026;SDS011;2532;52.480;13.354;2022-11-20T09:28:10;24.40;;;14.17;;
5026;SDS011;2532;52.480;13.354;2022-11-20T09:30:37;21.70;;;14.00;;
5026;SDS011;2532;52.480;13.354;2022-11-20T09:33:04;26.80;;;14.97;;
5026;SDS011;2532;52.480;13.354;2022-11-20T09:35:32;24.03;;;14.40;;
5026;SDS011;2532;52.480;13.354;2022-11-20T09:38:03;25.90;;;14.53;;
5026;SDS011;2532;52.480;13.354;2022-11-20T09:40:33;24.87;;;15.37;;
5026;SDS011;2532;52.480;13.354;2022-11-20T09:43:05;26.53;;;15.17;;
5026;SDS011;2532;52.480;13.354;2022-11-20T09:45:42;22.27;;;14.03;;
5026;SDS011;2532;52.480;13.354;2022-11-20T09:48:30;24.50;;;14.67;;
5026;SDS011;2532;52.480;13.354;2022-11-20T09:51:09;30.03;;;14.60;;
5026;SDS011;2532;52.480;13.354;2022-11-20T09:53:52;24.00;;;14.40;;
5026;SDS011;2532;52.480;13.354;2022-11-20T09:56:33;22.80;;;13.27;;
5026;SDS011;2532;52.480;13.354;2022-11-20T09:59:03;24.13;;;14.63;;
5026;SDS011;2532;52.480;13.354;2022-11-20T10:01:34;23.43;;;13.13;;
5026;SDS011;2532;52.480;13.354;2022-11-20T10:04:06;22.73;;;14.00;;
5026;SDS011;2532;52.480;13.354;2022-11-20T10:06:42;23.33;;;13.63;;
5026;SDS011;2532;52.480;13.354;2022-11-20T10:09:18;26.00;;;14.20;;
5026;SDS011;2532;52.480;13.354;2022-11-20T10:11:58;20.63;;;12.77;;
5026;SDS011;2532;52.480;13.354;2022-11-20T10:14:36;25.40;;;16.17;;
5026;SDS011;2532;52.480;13.354;2022-11-20T10:17:13;22.33;;;12.73;;
5026;SDS011;2532;52.480;13.354;2022-11-20T10:19:52;20.00;;;13.17;;
5026;SDS011;2532;52.480;13.354;2022-11-20T10:22:32;24.47;;;13.80;;
5026;SDS011;2532;52.480;13.354;2022-11-20T10:25:11;24.23;;;14.93;;
5026;SDS011;2532;52.480;13.354;2022-11-20T10:27:55;23.93;;;15.27;;
5026;SDS011;2532;52.480;13.354;2022-11-20T10:30:34;23.63;;;14.00;;
5026;SDS011;2532;52.480;13.354;2022-11-20T10:33:04;24.83;;;15.00;;
5026;SDS011;2532;52.480;13.354;2022-11-20T10:35:39;22.57;;;13.77;;
5026;SDS011;2532;52.480;13.354;2022-11-20T10:38:12;23.57;;;13.80;;
5026;SDS011;2532;52.480;13.354;2022-11-20T10:40:45;22.57;;;13.53;;
5026;SDS011;2532;52.480;13.354;2022-11-20T10:43:17;27.77;;;14.77;;
5026;SDS011;2532;52.480;13.354;2022-11-20T10:45:49;24.40;;;14.40;;
5026;SDS011;2532;52.480;13.354;2022-11-20T10:48:21;31.60;;;14.90;;
5026;SDS011;2532;52.480;13.354;2022-11-20T10:53:55;24.33;;;14.23;;
5026;SDS011;2532;52.480;13.354;2022-11-20T10:56:30;25.33;;;14.83;;
5026;SDS011;2532;52.480;13.354;2022-11-20T10:59:12;23.67;;;14.43;;
5026;SDS011;2532;52.480;13.354;2022-11-20T11:01:59;24.63;;;13.80;;
5026;SDS011;2532;52.480;13.354;2022-11-20T11:04:32;20.27;;;13.43;;
5026;SDS011;2532;52.480;13.354;2022-11-20T11:07:06;22.40;;;14.20;;
5026;SDS011;2532;52.480;13.354;2022-11-20T11:09:38;22.90;;;14.60;;
5026;SDS011;2532;52.480;13.354;2022-11-20T11:12:07;23.07;;;14.17;;
5026;SDS011;2532;52.480;13.354;2022-11-20T11:14:43;31.60;;;13.30;;
5026;SDS011;2532;52.480;13.354;2022-11-20T11:17:25;23.83;;;14.03;;
5026;SDS011;2532;52.480;13.354;2022-11-20T11:19:57;19.70;;;13.67;;
5026;SDS011;2532;52.480;13.354;2022-11-20T11:22:29;21.03;;;12.60;;
5026;SDS011;2532;52.480;13.354;2022-11-20T11:24:58;22.37;;;12.67;;
5026;SDS011;2532;52.480;13.354;2022-11-20T11:27:25;23.00;;;13.27;;
5026;SDS011;2532;52.480;13.354;2022-11-20T11:30:02;24.90;;;12.87;;
5026;SDS011;2532;52.480;13.354;2022-11-20T11:32:38;20.20;;;12.60;;
5026;SDS011;2532;52.480;13.354;2022-11-20T11:35:06;22.93;;;12.20;;
5026;SDS011;2532;52.480;13.354;2022-11-20T11:37:45;24.00;;;13.77;;
5026;SDS011;2532;52.480;13.354;2022-11-20T11:40:14;22.13;;;13.60;;
5026;SDS011;2532;52.480;13.354;2022-11-20T11:42:42;22.13;;;12.83;;
5026;SDS011;2532;52.480;13.354;2022-11-20T11:45:13;25.10;;;13.53;;
5026;SDS011;2532;52.480;13.354;2022-11-20T11:47:43;28.67;;;13.73;;
5026;SDS011;2532;52.480;13.354;2022-11-20T11:50:16;27.13;;;13.50;;
5026;SDS011;2532;52.480;13.354;2022-11-20T11:52:47;20.60;;;11.97;;
5026;SDS011;2532;52.480;13.354;2022-11-20T11:55:23;21.20;;;12.43;;
5026;SDS011;2532;52.480;13.354;2022-11-20T11:57:56;18.23;;;12.17;;
5026;SDS011;2532;52.480;13.354;2022-11-20T12:00:34;19.60;;;12.03;;
5026;SDS011;2532;52.480;13.354;2022-11-20T12:03:04;20.40;;;13.20;;
5026;SDS011;2532;52.480;13.354;2022-11-20T12:05:37;20.77;;;11.93;;
5026;SDS011;2532;52.480;13.354;2022-11-20T12:08:11;21.77;;;12.43;;
5026;SDS011;2532;52.480;13.354;2022-11-20T12:10:45;23.93;;;12.77;;
5026;SDS011;2532;52.480;13.354;2022-11-20T12:13:25;22.13;;;12.00;;
5026;SDS011;2532;52.480;13.354;2022-11-20T12:16:09;22.57;;;11.50;;
5026;SDS011;2532;52.480;13.354;2022-11-20T12:18:39;20.70;;;12.57;;
5026;SDS011;2532;52.480;13.354;2022-11-20T12:21:11;25.77;;;15.10;;
5026;SDS011;2532;52.480;13.354;2022-11-20T12:23:50;21.90;;;12.10;;
5026;SDS011;2532;52.480;13.354;2022-11-20T12:26:43;20.47;;;10.00;;
5026;SDS011;2532;52.480;13.354;2022-11-20T12:29:23;15.57;;;10.40;;
5026;SDS011;2532;52.480;13.354;2022-11-20T12:32:11;32.60;;;16.60;;
5026;SDS011;2532;52.480;13.354;2022-11-20T12:34:58;16.40;;;10.70;;
5026;SDS011;2532;52.480;13.354;2022-11-20T12:37:33;15.60;;;9.77;;
5026;SDS011;2532;52.480;13.354;2022-11-20T12:40:13;17.63;;;9.53;;
5026;SDS011;2532;52.480;13.354;2022-11-20T12:42:57;14.70;;;9.70;;
5026;SDS011;2532;52.480;13.354;2022-11-20T12:46:01;16.17;;;10.57;;
5026;SDS011;2532;52.480;13.354;2022-11-20T12:48:50;12.77;;;8.93;;
5026;SDS011;2532;52.480;13.354;2022-11-20T12:54:38;15.17;;;9.50;;
5026;SDS011;2532;52.480;13.354;2022-11-20T12:57:29;14.17;;;8.93;;
5026;SDS011;2532;52.480;13.354;2022-11-20T13:00:07;16.60;;;9.33;;
5026;SDS011;2532;52.480;13.354;2022-11-20T13:02:53;13.00;;;8.90;;
5026;SDS011;2532;52.480;13.354;2022-11-20T13:05:50;16.83;;;9.70;;
5026;SDS011;2532;52.480;13.354;2022-11-20T13:08:25;19.20;;;9.73;;
5026;SDS011;2532;52.480;13.354;2022-11-20T13:10:57;16.17;;;9.07;;
5026;SDS011;2532;52.480;13.354;2022-11-20T13:13:31;15.63;;;9.20;;
5026;SDS011;2532;52.480;13.354;2022-11-20T13:16:06;12.37;;;8.23;;
5026;SDS011;2532;52.480;13.354;2022-11-20T13:18:42;12.40;;;8.23;;
5026;SDS011;2532;52.480;13.354;2022-11-20T13:21:15;15.80;;;9.60;;
5026;SDS011;2532;52.480;13.354;2022-11-20T13:23:43;16.00;;;9.90;;
5026;SDS011;2532;52.480;13.354;2022-11-20T13:26:15;17.43;;;10.03;;
5026;SDS011;2532;52.480;13.354;2022-11-20T13:28:45;13.30;;;8.57;;
5026;SDS011;2532;52.480;13.354;2022-11-20T13:31:23;15.47;;;9.97;;
5026;SDS011;2532;52.480;13.354;2022-11-20T13:33:55;14.00;;;9.70;;
5026;SDS011;2532;52.480;13.354;2022-11-20T13:36:26;14.67;;;9.30;;
5026;SDS011;2532;52.480;13.354;2022-11-20T13:38:54;15.80;;;8.90;;
5026;SDS011;2532;52.480;13.354;2022-11-20T13:41:23;12.40;;;8.43;;
5026;SDS011;2532;52.480;13.354;2022-11-20T13:43:57;13.80;;;9.70;;
5026;SDS011;2532;52.480;13.354;2022-11-20T13:46:37;14.60;;;8.90;;
5026;SDS011;2532;52.480;13.354;2022-11-20T13:49:06;15.43;;;9.40;;
5026;SDS011;2532;52.480;13.354;2022-11-20T13:51:39;14.73;;;8.60;;
5026;SDS011;2532;52.480;13.354;2022-11-20T13:54:14;14.63;;;8.73;;
5026;SDS011;2532;52.480;13.354;2022-11-20T13:57:06;15.03;;;9.17;;
5026;SDS011;2532;52.480;13.354;2022-11-20T13:59:57;12.30;;;8.53;;
5026;SDS011;2532;52.480;13.354;2022-11-20T14:02:27;15.20;;;8.60;;
5026;SDS011;2532;52.480;13.354;2022-11-20T14:04:57;14.60;;;9.90;;
5026;SDS011;2532;52.480;13.354;2022-11-20T14:07:31;14.37;;;9.13;;
5026;SDS011;2532;52.480;13.354;2022-11-20T14:10:01;16.13;;;10.20;;
5026;SDS011;2532;52.480;13.354;2022-11-20T14:12:29;13.57;;;8.47;;
5026;SDS011;2532;52.480;13.354;2022-11-20T14:14:58;13.63;;;8.23;;
5026;SDS011;2532;52.480;13.354;2022-11-20T14:17:29;14.20;;;9.13;;
5026;SDS011;2532;52.480;13.354;2022-11-20T14:19:58;13.87;;;9.40;;
5026;SDS011;2532;52.480;13.354;2022-11-20T14:22:29;15.10;;;8.70;;
5026;SDS011;2532;52.480;13.354;2022-11-20T14:25:04;14.27;;;9.10;;
5026;SDS011;2532;52.480;13.354;2022-11-20T14:27:33;12.83;;;8.20;;
5026;SDS011;2532;52.480;13.354;2022-11-20T14:30:03;12.67;;;9.10;;
5026;SDS011;2532;52.480;13.354;2022-11-20T14:32:31;13.80;;;8.27;;
5026;SDS011;2532;52.480;13.354;2022-11-20T14:35:02;14.77;;;8.87;;
5026;SDS011;2532;52.480;13.354;2022-11-20T14:37:36;12.37;;;8.17;;
5026;SDS011;2532;52.480;13.354;2022-11-20T14:40:05;13.17;;;8.77;;
5026;SDS011;2532;52.480;13.354;2022-11-20T14:42:49;14.77;;;8.23;;
5026;SDS011;2532;52.480;13.354;2022-11-20T14:45:16;13.40;;;8.30;;
5026;SDS011;2532;52.480;13.354;2022-11-20T14:47:44;13.90;;;9.50;;
5026;SDS011;2532;52.480;13.354;2022-11-20T14:50:12;15.40;;;9.30;;
5026;SDS011;2532;52.480;13.354;2022-11-20T14:52:50;14.13;;;10.27;;
5026;SDS011;2532;52.480;13.354;2022-11-20T14:55:25;15.50;;;9.53;;
5026;SDS011;2532;52.480;13.354;2022-11-20T14:57:57;16.33;;;10.47;;
5026;SDS011;2532;52.480;13.354;2022-11-20T15:00:25;17.73;;;11.23;;
5026;SDS011;2532;52.480;13.354;2022-11-20T15:02:53;14.63;;;9.40;;
5026;SDS011;2532;52.480;13.354;2022-11-20T15:05:21;17.50;;;10.20;;
5026;SDS011;2532;52.480;13.354;2022-11-20T15:07:51;18.43;;;9.90;;